Terminal Aerodrome Forecast
Issued by NWS

Current Version | Previous Version | Graphics & Text | Print | Product List | Glossary On
Versions: 1 2 3 4 5 6 7 8 9 10 11 12 13 14 15 16
000
FTUS41 KPBZ 271737
TAFMGW
TAF
KMGW 271737Z 2718/2818 22008G15KT P6SM SKC
     FM272300 22004KT P6SM SKC
     FM281700 12008KT P6SM BKN080=

USA.gov is the U.S. government's official web portal to all federal, state and local government web resources and services.